Time;durP1;ratioP1;P1;durP2;ratioP2;P2;SDS_P1;SDS_P2;PMS_P1;PMS_P2;Temp;Humidity;BMP_temperature;BMP_pressure;BME280_temperature;BME280_humidity;BME280_pressure;Samples;Min_cycle;Max_cycle;Signal;HPM_P1;HPM_P2
2021/06/02 00:01:03;;;;;;;3.22;1.90;;;20.00;49.20;;;;;;2077904;28;20042;-86
2021/06/02 00:02:04;;;;;;;2.63;1.58;;;20.00;49.30;;;;;;2077202;28;20076;-86
2021/06/02 00:03:05;;;;;;;2.70;1.67;;;19.90;49.30;;;;;;2071729;28;20395;-85
2021/06/02 00:04:08;;;;;;;3.15;1.70;;;19.90;49.40;;;;;;2071934;28;20149;-85
2021/06/02 00:05:10;;;;;;;2.75;1.70;;;19.90;49.50;;;;;;2064111;28;20149;-86
2021/06/02 00:06:10;;;;;;;2.75;1.88;;;19.80;49.60;;;;;;2069781;28;20085;-86
2021/06/02 00:07:14;;;;;;;4.72;1.95;;;19.80;49.70;;;;;;2072221;28;20116;-86
2021/06/02 00:08:16;;;;;;;2.83;1.77;;;19.80;49.80;;;;;;2067233;28;20031;-86
2021/06/02 00:09:17;;;;;;;3.30;1.88;;;19.70;49.90;;;;;;2070186;28;20508;-85
2021/06/02 00:10:20;;;;;;;3.05;1.85;;;19.70;50.00;;;;;;2082011;28;20021;-86
2021/06/02 00:11:22;;;;;;;3.08;1.98;;;19.60;50.10;;;;;;2070844;28;20019;-86
2021/06/02 00:12:23;;;;;;;2.60;1.80;;;19.60;50.30;;;;;;2072102;28;20028;-86
2021/06/02 00:13:25;;;;;;;3.30;2.00;;;19.50;50.30;;;;;;2065377;28;20041;-85
2021/06/02 00:14:27;;;;;;;4.25;2.00;;;19.50;50.50;;;;;;2065902;28;20473;-86
2021/06/02 00:15:28;;;;;;;2.95;1.80;;;19.50;50.50;;;;;;2065858;28;20034;-86
2021/06/02 00:16:29;;;;;;;2.78;1.80;;;19.40;50.60;;;;;;2061925;28;20476;-86
2021/06/02 00:17:30;;;;;;;3.65;1.90;;;19.40;50.70;;;;;;2066204;28;20077;-85
2021/06/02 00:18:30;;;;;;;3.35;2.17;;;19.40;50.80;;;;;;2074614;28;20033;-86
2021/06/02 00:19:32;;;;;;;3.22;2.08;;;19.30;50.90;;;;;;2074703;28;20095;-86
2021/06/02 00:20:33;;;;;;;3.20;1.90;;;19.30;51.00;;;;;;2075655;28;20033;-85
2021/06/02 00:21:34;;;;;;;3.85;2.20;;;19.30;51.10;;;;;;2057415;28;20541;-86
2021/06/02 00:22:34;;;;;;;3.60;2.22;;;19.20;51.10;;;;;;2058711;28;20066;-86
2021/06/02 00:23:36;;;;;;;5.38;2.20;;;19.20;51.30;;;;;;2064565;28;20091;-85
2021/06/02 00:24:38;;;;;;;3.58;2.10;;;19.20;51.30;;;;;;2077733;28;20074;-86
2021/06/02 00:25:39;;;;;;;3.60;2.38;;;19.10;51.50;;;;;;2081808;28;20025;-86
2021/06/02 00:26:41;;;;;;;3.22;2.03;;;19.10;51.60;;;;;;2074063;28;20417;-85
2021/06/02 00:27:43;;;;;;;4.22;2.30;;;19.10;52.40;;;;;;2070755;28;20057;-86
2021/06/02 00:28:44;;;;;;;3.42;2.40;;;19.00;51.80;;;;;;2068458;28;20141;-85
2021/06/02 00:29:45;;;;;;;3.50;2.25;;;19.00;52.00;;;;;;2061951;28;20026;-85
2021/06/02 00:30:46;;;;;;;4.43;2.17;;;19.00;52.10;;;;;;2070184;28;20500;-86
2021/06/02 00:31:48;;;;;;;3.42;2.22;;;18.90;52.10;;;;;;2079584;28;20022;-86
2021/06/02 00:32:50;;;;;;;2.92;2.10;;;18.90;52.20;;;;;;2080456;28;20021;-85
2021/06/02 00:33:51;;;;;;;3.70;1.88;;;18.90;52.40;;;;;;2079440;28;20021;-85
2021/06/02 00:34:52;;;;;;;3.72;2.20;;;18.80;52.40;;;;;;2080173;28;20029;-85
2021/06/02 00:35:53;;;;;;;3.47;2.10;;;18.80;53.10;;;;;;2072641;28;20030;-85
2021/06/02 00:36:54;;;;;;;3.88;2.10;;;18.80;52.60;;;;;;2076115;28;20021;-85
2021/06/02 00:37:55;;;;;;;4.32;2.33;;;18.80;52.70;;;;;;2085528;28;20036;-85
2021/06/02 00:38:57;;;;;;;3.25;2.20;;;18.80;52.80;;;;;;2081633;28;20129;-86
2021/06/02 00:39:58;;;;;;;3.20;2.20;;;18.70;52.90;;;;;;2078913;28;20021;-86
2021/06/02 00:40:59;;;;;;;3.65;2.38;;;18.70;53.00;;;;;;2070711;28;20080;-85
2021/06/02 00:42:00;;;;;;;3.40;2.20;;;18.70;53.20;;;;;;2066464;28;20026;-85
2021/06/02 00:43:02;;;;;;;3.67;2.30;;;18.70;53.30;;;;;;2062710;28;20037;-85
2021/06/02 00:44:07;;;;;;;4.53;2.40;;;18.60;53.30;;;;;;2068152;28;20037;-85
2021/06/02 00:45:10;;;;;;;4.28;2.38;;;18.70;53.60;;;;;;2074143;28;20028;-86
2021/06/02 00:46:13;;;;;;;3.45;2.13;;;18.60;53.70;;;;;;2076065;28;20044;-86
2021/06/02 00:47:16;;;;;;;3.33;2.25;;;18.60;53.80;;;;;;2073802;28;20092;-86
2021/06/02 00:48:18;;;;;;;4.22;2.10;;;18.50;53.80;;;;;;2065156;28;20042;-86
2021/06/02 00:49:24;;;;;;;3.30;2.35;;;18.50;54.10;;;;;;2071573;28;20451;-86
2021/06/02 00:50:25;;;;;;;4.18;2.58;;;18.50;54.20;;;;;;2078484;28;20030;-87
2021/06/02 00:51:26;;;;;;;4.63;2.50;;;18.40;54.30;;;;;;2072010;28;20026;-86
2021/06/02 00:52:27;;;;;;;3.85;2.38;;;18.50;54.60;;;;;;2065804;28;20060;-86
2021/06/02 00:53:29;;;;;;;3.90;2.47;;;18.40;54.60;;;;;;2078921;28;20084;-88
2021/06/02 00:54:33;;;;;;;3.78;2.40;;;18.40;54.80;;;;;;2073297;28;20026;-86
2021/06/02 00:55:34;;;;;;;4.75;2.88;;;18.40;54.90;;;;;;2072610;28;20461;-86
2021/06/02 00:56:45;;;;;;;3.92;2.40;;;18.30;55.00;;;;;;2072927;28;20026;-86
2021/06/02 00:57:48;;;;;;;4.05;2.50;;;18.30;55.00;;;;;;2071300;28;20392;-85
2021/06/02 00:58:52;;;;;;;3.70;2.40;;;18.30;55.10;;;;;;2070632;28;20030;-85
2021/06/02 01:00:09;;;;;;;4.13;2.50;;;18.30;55.30;;;;;;2072464;28;20026;-86
2021/06/02 01:01:10;;;;;;;3.97;2.45;;;18.30;55.40;;;;;;2071435;28;20030;-85
2021/06/02 01:02:16;;;;;;;4.78;2.70;;;18.30;55.40;;;;;;2073596;28;20436;-86
2021/06/02 01:03:22;;;;;;;4.22;2.72;;;18.30;55.60;;;;;;2083061;28;20467;-86
2021/06/02 01:04:26;;;;;;;4.78;2.45;;;18.30;55.70;;;;;;2080074;28;20026;-86
2021/06/02 01:05:27;;;;;;;4.20;2.67;;;18.20;55.80;;;;;;2080258;28;20033;-85
2021/06/02 01:06:29;;;;;;;4.85;2.65;;;18.20;56.50;;;;;;2062077;28;20026;-85
2021/06/02 01:07:34;;;;;;;3.65;2.53;;;18.20;56.00;;;;;;2071528;28;20029;-86
2021/06/02 01:08:37;;;;;;;5.32;2.75;;;18.10;56.10;;;;;;2076193;28;20491;-85
2021/06/02 01:09:51;;;;;;;6.65;2.83;;;18.20;56.30;;;;;;2078762;28;20041;-85
2021/06/02 01:10:52;;;;;;;3.78;2.40;;;18.20;56.30;;;;;;2073625;28;20034;-85
2021/06/02 01:11:53;;;;;;;4.18;2.88;;;18.10;56.40;;;;;;2064126;28;20504;-85
2021/06/02 01:12:58;;;;;;;4.25;2.85;;;18.10;56.40;;;;;;2064156;28;20022;-86
2021/06/02 01:14:00;;;;;;;4.90;3.20;;;18.10;56.60;;;;;;2072800;28;20026;-85
2021/06/02 01:15:01;;;;;;;4.10;2.78;;;18.10;56.80;;;;;;2071859;28;20037;-85
2021/06/02 01:16:02;;;;;;;5.35;2.88;;;18.10;57.50;;;;;;2071329;28;20022;-85
2021/06/02 01:17:04;;;;;;;4.85;3.30;;;18.10;57.00;;;;;;2064228;28;20046;-86
2021/06/02 01:18:07;;;;;;;5.88;3.60;;;18.00;57.10;;;;;;2077349;28;20041;-86
2021/06/02 01:19:11;;;;;;;4.50;2.80;;;18.00;57.20;;;;;;2070431;28;20029;-87
2021/06/02 01:20:13;;;;;;;5.55;3.28;;;18.00;57.40;;;;;;2073547;28;20029;-86
2021/06/02 01:21:23;;;;;;;6.15;3.13;;;18.00;57.50;;;;;;2067143;28;20125;-86
2021/06/02 01:22:25;;;;;;;6.38;3.20;;;18.00;57.60;;;;;;2075535;28;20558;-86
2021/06/02 01:23:26;;;;;;;4.32;2.97;;;17.90;57.80;;;;;;2063088;28;20077;-86
2021/06/02 01:24:28;;;;;;;5.78;3.22;;;17.90;57.90;;;;;;2067046;28;20060;-86
2021/06/02 01:25:28;;;;;;;5.47;3.15;;;17.90;58.10;;;;;;2088044;28;20048;-86
2021/06/02 01:26:30;;;;;;;5.57;3.20;;;17.90;58.10;;;;;;2076953;28;20029;-86
2021/06/02 01:27:31;;;;;;;6.85;3.60;;;17.90;58.30;;;;;;2071731;28;20356;-85
2021/06/02 01:28:31;;;;;;;5.15;3.33;;;17.90;58.40;;;;;;2063826;28;20027;-86
2021/06/02 01:29:34;;;;;;;5.30;3.85;;;17.90;58.50;;;;;;2055602;28;20494;-86
2021/06/02 01:30:36;;;;;;;4.95;3.28;;;17.80;58.60;;;;;;2071693;28;20018;-86
2021/06/02 01:32:10;;;;;;;5.05;3.28;;;17.80;58.70;;;;;;2078339;28;20088;-86
2021/06/02 01:33:35;;;;;;;5.80;3.13;;;17.80;58.80;;;;;;2076342;28;20072;-85
2021/06/02 01:35:17;;;;;;;4.72;3.05;;;17.80;58.70;;;;;;2072399;28;20026;-86
2021/06/02 01:36:55;;;;;;;6.55;3.50;;;17.80;58.90;;;;;;2079441;28;20569;-86
2021/06/02 01:38:19;;;;;;;4.40;3.20;;;17.80;58.60;;;;;;2051162;28;20484;-86
2021/06/02 01:39:43;;;;;;;5.28;3.28;;;17.80;58.70;;;;;;2074605;28;20100;-86
2021/06/02 01:41:22;;;;;;;5.78;4.00;;;17.80;58.80;;;;;;2048483;28;20045;-86
2021/06/02 01:42:37;;;;;;;5.05;3.55;;;17.80;59.00;;;;;;2077573;28;20072;-86
2021/06/02 01:43:53;;;;;;;5.47;3.53;;;17.80;59.00;;;;;;2081557;28;20180;-85
2021/06/02 01:45:17;;;;;;;6.75;3.80;;;17.70;59.00;;;;;;2079564;28;20025;-86
2021/06/02 01:46:26;;;;;;;5.60;3.75;;;17.80;59.30;;;;;;2077395;28;20545;-86
2021/06/02 01:48:17;;;;;;;5.85;3.30;;;17.70;59.20;;;;;;2079148;28;20033;-86
2021/06/02 01:49:48;;;;;;;4.45;3.00;;;17.80;59.50;;;;;;2070635;28;20504;-85
2021/06/02 01:51:24;;;;;;;4.75;3.03;;;17.80;59.30;;;;;;2078934;28;20040;-85
2021/06/02 01:52:42;;;;;;;5.05;3.17;;;17.80;59.40;;;;;;2046107;28;20133;-85
2021/06/02 01:53:48;;;;;;;5.57;3.30;;;17.80;59.40;;;;;;2079084;28;20037;-85
2021/06/02 01:55:08;;;;;;;6.72;3.55;;;17.70;59.40;;;;;;2073630;28;20065;-85
2021/06/02 01:56:18;;;;;;;5.18;3.15;;;17.80;59.70;;;;;;2069710;28;20563;-84
2021/06/02 01:57:51;;;;;;;5.18;3.28;;;17.80;59.70;;;;;;2068435;28;20030;-85
2021/06/02 01:59:09;;;;;;;5.93;3.47;;;17.80;59.70;;;;;;2075194;28;20045;-84
2021/06/02 02:00:44;;;;;;;5.82;3.05;;;17.80;59.70;;;;;;2074805;28;20164;-84
2021/06/02 02:02:23;;;;;;;5.95;3.10;;;17.80;59.70;;;;;;2076967;28;20025;-85
2021/06/02 02:04:08;;;;;;;4.35;2.95;;;17.80;59.70;;;;;;2064447;28;20034;-85
2021/06/02 02:05:32;;;;;;;6.93;3.33;;;17.80;59.60;;;;;;2075899;28;20021;-85
2021/06/02 02:06:42;;;;;;;5.10;3.50;;;17.80;59.70;;;;;;2078927;28;20021;-85
2021/06/02 02:08:19;;;;;;;4.38;2.80;;;17.80;59.70;;;;;;2069632;28;20037;-85
2021/06/02 02:09:34;;;;;;;4.15;2.90;;;17.90;59.80;;;;;;2075399;28;20446;-85
2021/06/02 02:10:39;;;;;;;4.43;2.70;;;17.80;59.70;;;;;;2073620;28;20069;-86
2021/06/02 02:11:42;;;;;;;4.32;2.70;;;17.90;59.80;;;;;;2071208;28;20148;-86
2021/06/02 02:13:20;;;;;;;5.82;3.10;;;17.90;59.80;;;;;;2070175;28;20472;-86
2021/06/02 02:14:41;;;;;;;4.55;2.92;;;17.90;59.90;;;;;;2076690;28;20022;-85
2021/06/02 02:16:18;;;;;;;5.30;2.83;;;17.90;59.90;;;;;;2077446;28;20025;-85
2021/06/02 02:17:50;;;;;;;4.68;2.58;;;17.90;59.80;;;;;;2080349;28;20026;-85
2021/06/02 02:18:56;;;;;;;3.75;2.63;;;17.90;59.90;;;;;;2078201;28;20173;-85
2021/06/02 02:20:17;;;;;;;4.75;3.40;;;17.90;59.80;;;;;;2070158;28;20022;-85
2021/06/02 02:21:30;;;;;;;4.90;3.05;;;17.90;59.90;;;;;;2076139;28;20554;-85
2021/06/02 02:22:42;;;;;;;5.07;3.33;;;17.90;59.90;;;;;;2079251;28;20048;-85
2021/06/02 02:23:55;;;;;;;5.03;3.13;;;18.00;60.00;;;;;;2078414;28;20056;-85
2021/06/02 02:25:08;;;;;;;5.30;2.95;;;17.90;60.00;;;;;;2076724;28;20415;-85
2021/06/02 02:26:35;;;;;;;5.00;2.92;;;18.00;60.10;;;;;;2076447;28;20654;-85
2021/06/02 02:28:06;;;;;;;5.38;3.55;;;18.00;60.10;;;;;;2074103;28;20038;-85
2021/06/02 02:29:29;;;;;;;5.47;3.28;;;18.00;60.00;;;;;;2075482;28;20040;-85
2021/06/02 02:30:59;;;;;;;5.38;3.38;;;18.00;60.00;;;;;;2073140;28;20499;-86
2021/06/02 02:32:20;;;;;;;5.65;3.20;;;18.00;59.90;;;;;;2081619;28;20032;-85
2021/06/02 02:33:37;;;;;;;6.43;3.30;;;18.00;60.00;;;;;;2083346;28;20117;-85
2021/06/02 02:35:29;;;;;;;4.50;3.00;;;18.00;59.90;;;;;;2079628;28;20024;-86
2021/06/02 02:36:31;;;;;;;5.25;3.50;;;18.00;60.00;;;;;;2069469;28;20535;-86
2021/06/02 02:37:42;;;;;;;5.10;3.05;;;18.00;59.90;;;;;;2074491;28;20042;-86
2021/06/02 02:39:01;;;;;;;;;;;18.00;60.00;;;;;;2073520;28;20455;-85
2021/06/02 02:40:04;;;;;;;4.90;2.92;;;18.00;59.90;;;;;;2078105;28;20355;-86
2021/06/02 02:41:24;;;;;;;3.92;2.80;;;18.00;59.90;;;;;;2073997;28;20095;-85
2021/06/02 02:42:44;;;;;;;5.20;2.97;;;18.00;59.90;;;;;;2072939;28;20368;-86
2021/06/02 02:44:15;;;;;;;4.28;2.92;;;18.00;60.00;;;;;;2081988;28;20047;-86
2021/06/02 02:45:24;;;;;;;4.05;2.80;;;18.00;60.00;;;;;;2076690;28;20036;-86
2021/06/02 02:46:39;;;;;;;4.63;2.70;;;18.00;60.00;;;;;;2077350;28;20060;-85
2021/06/02 02:48:03;;;;;;;5.00;3.10;;;18.00;60.10;;;;;;2074272;28;20495;-85
2021/06/02 02:49:20;;;;;;;5.57;3.10;;;18.00;60.20;;;;;;2074197;28;20034;-86
2021/06/02 02:51:00;;;;;;;4.57;2.97;;;17.90;60.20;;;;;;2078571;28;20171;-85
2021/06/02 02:52:31;;;;;;;5.18;3.00;;;18.00;60.30;;;;;;2077473;28;20475;-85
2021/06/02 02:53:45;;;;;;;4.25;2.80;;;17.90;60.20;;;;;;2077159;28;20045;-85
2021/06/02 02:55:07;;;;;;;4.55;2.50;;;17.90;60.30;;;;;;2078658;28;20056;-85
2021/06/02 02:56:16;;;;;;;5.20;2.85;;;17.90;60.40;;;;;;2075533;28;20511;-86
2021/06/02 02:57:38;;;;;;;5.45;3.03;;;17.90;60.50;;;;;;2077698;28;20055;-85
2021/06/02 02:58:46;;;;;;;3.55;2.50;;;17.90;60.50;;;;;;2079955;28;20072;-84
2021/06/02 03:00:05;;;;;;;4.32;2.90;;;17.90;60.60;;;;;;2078694;28;20032;-84
2021/06/02 03:01:27;;;;;;;3.88;2.60;;;17.90;60.70;;;;;;2079871;28;20036;-85
2021/06/02 03:02:52;;;;;;;4.43;3.13;;;17.90;60.80;;;;;;2078168;28;20125;-84
2021/06/02 03:04:19;;;;;;;4.68;2.83;;;17.80;60.70;;;;;;2072834;28;20539;-85
2021/06/02 03:05:27;;;;;;;5.03;2.85;;;17.80;60.80;;;;;;2070539;28;20112;-85
2021/06/02 03:06:49;;;;;;;4.15;2.83;;;17.80;60.90;;;;;;2070307;28;20030;-85
2021/06/02 03:08:00;;;;;;;4.72;2.65;;;17.80;60.90;;;;;;2078404;28;20025;-85
2021/06/02 03:09:28;;;;;;;4.78;2.78;;;17.80;61.00;;;;;;2080793;28;20084;-85
2021/06/02 03:10:33;;;;;;;4.18;2.67;;;17.70;60.90;;;;;;2082174;28;20045;-84
2021/06/02 03:12:07;;;;;;;4.35;2.83;;;17.70;61.00;;;;;;2077297;28;20038;-84
2021/06/02 03:13:32;;;;;;;5.32;3.08;;;17.70;61.10;;;;;;2081478;28;20040;-85
2021/06/02 03:14:54;;;;;;;4.85;3.05;;;17.70;61.20;;;;;;2088269;28;20021;-85
2021/06/02 03:16:00;;;;;;;4.78;2.90;;;17.70;61.30;;;;;;2075581;28;20021;-85
2021/06/02 03:17:30;;;;;;;4.93;3.22;;;17.60;61.20;;;;;;2079640;28;20038;-85
2021/06/02 03:18:40;;;;;;;5.28;3.53;;;17.70;61.40;;;;;;2083816;28;20030;-85
2021/06/02 03:20:03;;;;;;;6.20;3.30;;;17.60;61.40;;;;;;2078940;28;20033;-86
2021/06/02 03:21:41;;;;;;;5.28;3.35;;;17.60;61.50;;;;;;2081436;28;20052;-86
2021/06/02 03:23:15;;;;;;;4.72;2.90;;;17.60;61.50;;;;;;2085882;28;20083;-85
2021/06/02 03:24:45;;;;;;;5.20;3.10;;;17.60;61.50;;;;;;2086525;28;20041;-85
2021/06/02 03:25:57;;;;;;;5.15;3.50;;;17.60;61.60;;;;;;2076635;28;20028;-86
2021/06/02 03:27:08;;;;;;;4.88;3.22;;;17.60;61.60;;;;;;2068840;28;20034;-85
2021/06/02 03:28:18;;;;;;;5.72;3.38;;;17.50;61.70;;;;;;2074944;28;20034;-85
2021/06/02 03:29:40;;;;;;;6.63;3.00;;;17.50;61.70;;;;;;2076925;28;20041;-85
2021/06/02 03:31:25;;;;;;;4.57;3.20;;;17.50;61.80;;;;;;2071668;28;20068;-85
2021/06/02 03:32:50;;;;;;;4.82;2.90;;;17.50;61.80;;;;;;2072276;28;20046;-85
2021/06/02 03:34:21;;;;;;;4.95;3.28;;;17.50;61.90;;;;;;2081336;28;20123;-85
2021/06/02 03:35:49;;;;;;;4.53;3.25;;;17.50;61.90;;;;;;2078088;28;20052;-86
2021/06/02 03:37:09;;;;;;;5.30;3.55;;;17.50;61.90;;;;;;2080144;28;20022;-86
2021/06/02 03:38:21;;;;;;;6.30;3.58;;;17.50;61.90;;;;;;2076477;28;20189;-85
2021/06/02 03:39:54;;;;;;;5.13;3.10;;;17.50;62.00;;;;;;2076740;28;20029;-85
2021/06/02 03:41:19;;;;;;;7.65;3.78;;;17.50;62.00;;;;;;2081780;28;20038;-85
2021/06/02 03:42:22;;;;;;;5.18;3.60;;;17.50;62.20;;;;;;2079148;28;20021;-85
2021/06/02 03:43:29;;;;;;;5.22;3.38;;;17.50;62.30;;;;;;2076825;28;20117;-84
2021/06/02 03:44:43;;;;;;;5.07;3.65;;;17.40;62.30;;;;;;2077070;28;20456;-84
2021/06/02 03:46:19;;;;;;;5.75;3.50;;;17.50;62.40;;;;;;2073839;28;20189;-85
2021/06/02 03:47:58;;;;;;;4.25;3.30;;;17.50;62.50;;;;;;2082863;28;20021;-85
2021/06/02 03:49:16;;;;;;;4.82;3.05;;;17.40;62.50;;;;;;2085233;28;20449;-85
2021/06/02 03:50:20;;;;;;;5.78;3.13;;;17.40;62.50;;;;;;2079079;28;20695;-84
2021/06/02 03:51:41;;;;;;;5.60;3.72;;;17.40;62.60;;;;;;2081837;28;20021;-85
2021/06/02 03:52:48;;;;;;;;;;;17.40;62.70;;;;;;2083900;28;20112;-85
2021/06/02 03:54:10;;;;;;;4.45;2.80;;;17.40;62.60;;;;;;2086981;28;19909;-85
2021/06/02 03:55:32;;;;;;;4.53;2.95;;;17.40;62.60;;;;;;2083303;28;20044;-84
2021/06/02 03:57:00;;;;;;;4.80;3.00;;;17.40;62.60;;;;;;2085523;28;20467;-85
2021/06/02 03:58:30;;;;;;;4.25;3.10;;;17.30;62.70;;;;;;2080583;28;20098;-85
2021/06/02 03:59:41;;;;;;;5.15;3.35;;;17.30;62.80;;;;;;2076366;28;20120;-85
2021/06/02 04:00:47;;;;;;;7.07;3.40;;;17.30;62.80;;;;;;2081338;28;20028;-85
2021/06/02 04:01:57;;;;;;;6.00;3.40;;;17.30;63.00;;;;;;2078051;28;20018;-85
2021/06/02 04:03:11;;;;;;;5.65;3.70;;;17.30;63.10;;;;;;2074651;28;20037;-84
2021/06/02 04:04:36;;;;;;;4.72;3.10;;;17.30;63.20;;;;;;2072326;28;20121;-84
2021/06/02 04:05:53;;;;;;;5.55;3.20;;;17.30;63.30;;;;;;2073310;28;20030;-84
2021/06/02 04:07:14;;;;;;;5.55;3.35;;;17.30;63.40;;;;;;2071546;28;20030;-84
2021/06/02 04:08:33;;;;;;;;;;;17.30;63.40;;;;;;2080513;28;20026;-85
2021/06/02 04:10:02;;;;;;;4.45;2.72;;;17.30;63.30;;;;;;2083946;28;19916;-85
2021/06/02 04:11:03;;;;;;;5.22;3.25;;;17.30;63.30;;;;;;2075771;28;20450;-84
2021/06/02 04:12:24;;;;;;;4.90;3.13;;;17.30;63.40;;;;;;2071125;28;20117;-84
2021/06/02 04:14:03;;;;;;;5.60;3.20;;;17.30;63.50;;;;;;2081719;28;20033;-85
2021/06/02 04:15:06;;;;;;;5.28;3.47;;;17.30;63.50;;;;;;2085222;28;20076;-84
2021/06/02 04:16:13;;;;;;;4.50;3.38;;;17.30;63.50;;;;;;2086007;28;20043;-84
2021/06/02 04:17:14;;;;;;;5.50;3.53;;;17.40;63.60;;;;;;2085232;28;20028;-85
2021/06/02 04:18:22;;;;;;;4.65;3.40;;;17.40;63.50;;;;;;2075519;28;20034;-84
2021/06/02 04:19:25;;;;;;;4.82;3.25;;;17.40;63.60;;;;;;2078002;28;20018;-84
2021/06/02 04:20:27;;;;;;;5.70;3.67;;;17.40;63.60;;;;;;2080054;28;20032;-84
2021/06/02 04:21:29;;;;;;;5.68;3.55;;;17.50;63.80;;;;;;2073942;28;20030;-85
2021/06/02 04:22:31;;;;;;;5.32;3.80;;;17.50;63.80;;;;;;2068505;28;20508;-84
2021/06/02 04:23:36;;;;;;;5.57;3.55;;;17.50;63.90;;;;;;2078836;28;20400;-85
2021/06/02 04:24:37;;;;;;;5.60;3.58;;;17.50;63.90;;;;;;2081163;28;20032;-85
2021/06/02 04:25:39;;;;;;;5.00;3.55;;;17.50;63.90;;;;;;2072930;28;20054;-85
2021/06/02 04:26:41;;;;;;;6.28;4.20;;;17.50;64.00;;;;;;2078302;28;20030;-85
2021/06/02 04:27:45;;;;;;;5.35;3.50;;;17.50;64.10;;;;;;2072370;28;20091;-85
2021/06/02 04:28:48;;;;;;;5.60;3.72;;;17.50;64.20;;;;;;2079252;28;20487;-85
2021/06/02 04:29:50;;;;;;;5.57;4.13;;;17.50;64.30;;;;;;2070560;28;20100;-85
2021/06/02 04:30:58;;;;;;;5.47;3.85;;;17.50;64.40;;;;;;2065135;28;20105;-85
2021/06/02 04:32:07;;;;;;;5.90;4.25;;;17.50;64.50;;;;;;2073313;28;21843;-85
2021/06/02 04:33:11;;;;;;;5.90;3.90;;;17.50;64.60;;;;;;2078316;28;20092;-85
2021/06/02 04:34:13;;;;;;;6.28;4.13;;;17.50;64.60;;;;;;2084647;28;20025;-85
2021/06/02 04:35:18;;;;;;;5.55;3.90;;;17.50;64.70;;;;;;2078301;28;20030;-86
2021/06/02 04:36:19;;;;;;;5.43;3.78;;;17.50;64.80;;;;;;2066662;28;20026;-85
2021/06/02 04:37:20;;;;;;;6.28;4.30;;;17.50;64.80;;;;;;2067977;28;20489;-84
2021/06/02 04:38:21;;;;;;;5.63;4.00;;;17.50;64.90;;;;;;2077261;28;20040;-85
2021/06/02 04:39:23;;;;;;;6.80;4.47;;;17.50;65.00;;;;;;2084515;28;20036;-84
2021/06/02 04:40:24;;;;;;;6.20;4.20;;;17.50;65.00;;;;;;2087072;28;20032;-84
2021/06/02 04:41:27;;;;;;;6.07;4.25;;;17.50;65.00;;;;;;2083071;28;20029;-85
2021/06/02 04:42:29;;;;;;;5.38;3.80;;;17.50;65.10;;;;;;2084079;28;20036;-85
2021/06/02 04:43:35;;;;;;;5.93;4.20;;;17.50;65.10;;;;;;2074899;28;20052;-85
2021/06/02 04:44:37;;;;;;;7.90;4.72;;;17.50;65.20;;;;;;2078126;28;20472;-85
2021/06/02 04:45:48;;;;;;;7.10;4.38;;;17.50;65.20;;;;;;2067722;28;20034;-85
2021/06/02 04:46:49;;;;;;;7.50;4.45;;;17.50;65.20;;;;;;2073309;28;20033;-85
2021/06/02 04:47:50;;;;;;;6.07;4.28;;;17.50;65.20;;;;;;2076255;28;20435;-85
2021/06/02 04:48:52;;;;;;;5.53;4.10;;;17.60;65.20;;;;;;2079986;28;20083;-85
2021/06/02 04:50:25;;;;;;;5.63;4.22;;;17.60;65.30;;;;;;2079996;28;20634;-85
2021/06/02 04:52:01;;;;;;;6.63;4.20;;;17.60;65.10;;;;;;2081600;28;20117;-85
2021/06/02 04:53:39;;;;;;;6.20;4.20;;;17.60;65.00;;;;;;2075949;28;20053;-85
2021/06/02 04:55:01;;;;;;;6.22;4.13;;;17.70;64.90;;;;;;2081403;28;20391;-85
2021/06/02 04:56:08;;;;;;;5.50;4.30;;;17.70;64.80;;;;;;2088213;28;20025;-85
2021/06/02 04:57:20;;;;;;;6.43;4.53;;;17.80;64.70;;;;;;2087444;28;20056;-85
2021/06/02 04:58:39;;;;;;;5.57;4.05;;;17.80;64.60;;;;;;2077629;28;20041;-85
2021/06/02 05:00:18;;;;;;;5.50;3.83;;;17.90;64.50;;;;;;2073466;28;20388;-85
2021/06/02 05:01:41;;;;;;;5.75;4.00;;;17.90;64.30;;;;;;2075853;28;20046;-85
2021/06/02 05:03:06;;;;;;;6.47;4.13;;;18.00;64.10;;;;;;2071309;28;20404;-85
2021/06/02 05:04:24;;;;;;;6.22;3.80;;;18.10;63.90;;;;;;2075742;28;20056;-85
2021/06/02 05:05:52;;;;;;;5.38;3.80;;;18.20;63.70;;;;;;2077502;28;20103;-84
2021/06/02 05:07:11;;;;;;;5.65;3.85;;;18.30;63.60;;;;;;2072652;28;20034;-85
2021/06/02 05:08:21;;;;;;;5.43;3.80;;;18.40;63.40;;;;;;2074075;28;20026;-85
2021/06/02 05:10:00;;;;;;;4.90;3.47;;;18.40;63.20;;;;;;2078416;28;20032;-85
2021/06/02 05:11:10;;;;;;;4.95;3.45;;;18.50;63.00;;;;;;2088521;28;20075;-85
2021/06/02 05:12:32;;;;;;;5.10;3.63;;;18.60;62.70;;;;;;2086919;28;20028;-86
2021/06/02 05:13:54;;;;;;;4.93;3.60;;;18.80;62.60;;;;;;2084182;28;20028;-84
2021/06/02 05:15:33;;;;;;;4.80;3.47;;;18.80;62.30;;;;;;2079368;28;20021;-85
2021/06/02 05:16:45;;;;;;;5.40;3.85;;;18.90;62.10;;;;;;2055807;28;20098;-85
2021/06/02 05:18:24;;;;;;;6.13;3.40;;;19.00;62.00;;;;;;2073477;28;20041;-85
2021/06/02 05:22:47;;;;;;;6.97;4.22;;;19.10;61.60;;;;;;2086868;28;20024;-85
2021/06/02 05:24:33;;;;;;;5.50;3.80;;;19.10;61.60;;;;;;2081374;28;20046;-86
2021/06/02 05:25:53;;;;;;;5.07;3.67;;;19.20;61.40;;;;;;2077898;28;20026;-84
2021/06/02 05:27:21;;;;;;;5.10;3.70;;;19.30;61.20;;;;;;2074920;28;20029;-84
2021/06/02 05:28:40;;;;;;;7.82;3.90;;;19.30;61.10;;;;;;2078233;28;20045;-83
2021/06/02 05:29:46;;;;;;;5.88;4.05;;;19.40;61.00;;;;;;2077948;28;20025;-84
2021/06/02 05:31:05;;;;;;;5.35;3.50;;;19.40;60.80;;;;;;2066606;28;20041;-85
2021/06/02 05:32:44;;;;;;;5.35;3.63;;;19.50;60.60;;;;;;2081143;28;20029;-85
2021/06/02 05:34:05;;;;;;;4.63;3.17;;;19.60;60.50;;;;;;2079448;28;20084;-84
2021/06/02 05:35:48;;;;;;;5.45;3.65;;;19.60;60.40;;;;;;2077947;28;20520;-84
2021/06/02 05:37:07;;;;;;;5.32;3.75;;;19.70;60.20;;;;;;2082469;28;20095;-84
2021/06/02 05:38:22;;;;;;;5.30;3.70;;;19.80;60.00;;;;;;2079876;28;20035;-85
2021/06/02 05:39:48;;;;;;;5.15;3.63;;;19.80;59.90;;;;;;2073706;28;20108;-86
2021/06/02 05:41:07;;;;;;;5.13;3.25;;;19.90;59.80;;;;;;2077162;28;20083;-85
2021/06/02 05:42:13;;;;;;;4.00;2.97;;;20.00;59.70;;;;;;2080048;28;20029;-86
2021/06/02 05:43:50;;;;;;;5.40;3.72;;;20.00;59.50;;;;;;2068808;28;20045;-85
2021/06/02 05:45:10;;;;;;;4.45;3.30;;;20.10;59.30;;;;;;2079861;28;20376;-85
2021/06/02 05:46:26;;;;;;;5.80;4.13;;;20.20;59.20;;;;;;2086537;28;20462;-86
2021/06/02 05:47:56;;;;;;;6.72;3.83;;;20.20;59.00;;;;;;2076482;28;20503;-85
2021/06/02 05:49:01;;;;;;;5.40;3.70;;;20.20;58.90;;;;;;2070388;28;20049;-84
2021/06/02 05:50:35;;;;;;;5.07;3.45;;;20.20;58.90;;;;;;2079386;28;20029;-85
2021/06/02 05:51:59;;;;;;;4.47;3.20;;;20.20;59.00;;;;;;2075407;28;20128;-85
2021/06/02 05:53:14;;;;;;;4.75;3.38;;;20.20;58.90;;;;;;2069913;28;20045;-86
2021/06/02 05:54:54;;;;;;;6.28;3.28;;;20.30;58.90;;;;;;2080995;28;20060;-85
2021/06/02 05:56:20;;;;;;;4.75;3.08;;;20.30;58.70;;;;;;2082707;28;20028;-85
2021/06/02 05:57:26;;;;;;;4.88;3.30;;;20.40;58.60;;;;;;2084754;28;20029;-86
2021/06/02 05:58:46;;;;;;;5.80;4.20;;;20.50;58.40;;;;;;2078744;28;20498;-85
2021/06/02 06:00:24;;;;;;;7.25;3.83;;;20.50;58.20;;;;;;2080276;28;20083;-85
2021/06/02 06:01:47;;;;;;;5.63;3.70;;;20.50;58.10;;;;;;2075767;28;20047;-85
2021/06/02 06:03:16;;;;;;;4.80;3.45;;;20.50;58.10;;;;;;2049796;28;20174;-85
2021/06/02 06:04:55;;;;;;;5.00;3.60;;;20.60;58.00;;;;;;2083740;28;20029;-84
2021/06/02 06:06:20;;;;;;;5.00;3.50;;;20.60;58.00;;;;;;2084296;28;20061;-84
2021/06/02 06:08:08;;;;;;;4.88;3.40;;;20.60;57.70;;;;;;2079130;28;20456;-84
2021/06/02 06:09:15;;;;;;;5.25;3.13;;;20.60;57.70;;;;;;2083010;28;20091;-85
2021/06/02 06:10:45;;;;;;;4.32;3.35;;;20.70;57.70;;;;;;2075944;28;20029;-85
2021/06/02 06:12:10;;;;;;;4.68;3.38;;;20.70;57.50;;;;;;2072807;28;20496;-85
2021/06/02 06:13:41;;;;;;;4.43;3.20;;;20.80;57.40;;;;;;2081290;28;20087;-85
2021/06/02 06:15:07;;;;;;;;;;;20.90;57.20;;;;;;2074686;28;20022;-85
2021/06/02 06:16:47;;;;;;;5.07;2.90;;;20.90;57.10;;;;;;2079682;28;19909;-85
2021/06/02 06:18:04;;;;;;;4.50;2.85;;;21.00;57.10;;;;;;2076587;28;20033;-85
2021/06/02 06:19:29;;;;;;;4.53;3.00;;;21.00;56.90;;;;;;2073717;28;20787;-84
2021/06/02 06:21:03;;;;;;;5.38;3.05;;;21.10;56.90;;;;;;2078727;28;20404;-84
2021/06/02 06:22:31;;;;;;;4.38;3.13;;;21.20;56.80;;;;;;2073369;28;20030;-85
2021/06/02 06:24:15;;;;;;;4.75;3.22;;;21.20;56.60;;;;;;2080350;28;20040;-84
2021/06/02 06:25:18;;;;;;;4.55;2.83;;;21.30;56.50;;;;;;2069951;28;20068;-86
2021/06/02 06:26:37;;;;;;;4.07;3.15;;;21.30;56.50;;;;;;2081195;28;20021;-87
2021/06/02 06:27:49;;;;;;;4.68;3.20;;;21.40;56.40;;;;;;2074107;28;20021;-87
2021/06/02 06:29:16;;;;;;;4.63;3.25;;;21.40;56.90;;;;;;2076028;28;20021;-88
2021/06/02 06:30:28;;;;;;;3.83;2.80;;;21.40;56.20;;;;;;2073547;28;20022;-87
2021/06/02 06:31:32;;;;;;;5.10;3.60;;;21.40;56.20;;;;;;2081004;28;20072;-87
2021/06/02 06:32:36;;;;;;;6.45;3.42;;;21.50;56.20;;;;;;2067064;28;20026;-88
2021/06/02 06:33:39;;;;;;;4.68;3.42;;;21.50;56.10;;;;;;2073534;28;20101;-88